Time;durP1;ratioP1;P1;durP2;ratioP2;P2;SDS_P1;SDS_P2;PMS_P1;PMS_P2;Temp;Humidity;BMP_temperature;BMP_pressure;BME280_temperature;BME280_humidity;BME280_pressure;Samples;Min_cycle;Max_cycle;Signal;HPM_P1;HPM_P2
2022/03/25 00:00:59;;;;;;;14.27;10.05;;;5.40;99.90;;;;;;4784335;29;20051;-73
2022/03/25 00:03:29;;;;;;;15.18;9.93;;;5.40;99.90;;;;;;4783489;30;20146;-74
2022/03/25 00:05:57;;;;;;;13.75;9.18;;;5.40;99.90;;;;;;4799571;29;20553;-74
2022/03/25 00:08:24;;;;;;;17.58;9.63;;;5.40;99.90;;;;;;4784326;29;20537;-73
2022/03/25 00:10:51;;;;;;;17.10;9.75;;;5.40;99.90;;;;;;4783572;30;20062;-73
2022/03/25 00:13:19;;;;;;;15.43;9.23;;;5.40;99.90;;;;;;4784472;30;20078;-73
2022/03/25 00:15:46;;;;;;;16.92;8.95;;;5.40;99.90;;;;;;4784297;30;20432;-74
2022/03/25 00:18:14;;;;;;;18.10;10.23;;;5.40;99.90;;;;;;4784420;29;20691;-75
2022/03/25 00:20:44;;;;;;;17.83;9.38;;;5.40;99.90;;;;;;4783494;29;20059;-74
2022/03/25 00:23:12;;;;;;;14.70;8.15;;;5.30;99.90;;;;;;4785336;29;20059;-74
2022/03/25 00:25:39;;;;;;;16.15;9.80;;;5.30;99.90;;;;;;4785622;29;20063;-74
2022/03/25 00:28:07;;;;;;;15.30;9.52;;;5.30;99.90;;;;;;4785465;29;20136;-74
2022/03/25 00:30:35;;;;;;;15.07;9.43;;;5.30;99.90;;;;;;4788283;29;20063;-74
2022/03/25 00:33:02;;;;;;;15.63;9.00;;;5.30;99.90;;;;;;4787389;30;20093;-73
2022/03/25 00:35:29;;;;;;;14.93;8.63;;;5.30;99.90;;;;;;4787918;30;20106;-73
2022/03/25 00:37:59;;;;;;;15.65;8.68;;;5.30;99.90;;;;;;4786605;30;20059;-73
2022/03/25 00:40:28;;;;;;;16.48;9.52;;;5.30;99.90;;;;;;4787357;30;20437;-73
2022/03/25 00:42:56;;;;;;;12.10;8.00;;;5.30;99.90;;;;;;4787394;30;20112;-74
2022/03/25 00:45:23;;;;;;;14.82;8.32;;;5.30;99.90;;;;;;4787635;30;20083;-74
2022/03/25 00:47:51;;;;;;;14.10;7.75;;;5.30;99.90;;;;;;4786525;30;20058;-75
2022/03/25 00:50:20;;;;;;;15.43;8.27;;;5.30;99.90;;;;;;4788876;29;20070;-76
2022/03/25 00:52:48;;;;;;;15.45;8.75;;;5.30;99.90;;;;;;4788602;30;20051;-74
2022/03/25 00:55:18;;;;;;;16.25;8.05;;;5.30;99.90;;;;;;4787664;30;20059;-74
2022/03/25 00:57:45;;;;;;;12.93;7.93;;;5.30;99.90;;;;;;4787559;29;20141;-74
2022/03/25 01:00:15;;;;;;;15.57;8.75;;;5.30;99.90;;;;;;4787301;30;20071;-74
2022/03/25 01:02:42;;;;;;;12.68;8.40;;;5.30;99.90;;;;;;4786897;30;20051;-74
2022/03/25 01:05:10;;;;;;;17.40;7.85;;;5.30;99.90;;;;;;4785595;30;20171;-74
2022/03/25 01:07:37;;;;;;;15.35;8.88;;;5.30;99.90;;;;;;4787394;30;20464;-75
2022/03/25 01:10:07;;;;;;;14.30;8.07;;;5.30;99.90;;;;;;4787387;30;20047;-74
2022/03/25 01:12:35;;;;;;;18.83;9.43;;;5.20;99.90;;;;;;4789124;29;20055;-75
2022/03/25 01:15:04;;;;;;;15.93;8.27;;;5.20;99.90;;;;;;4801759;29;20147;-74
2022/03/25 01:17:32;;;;;;;17.00;8.20;;;5.20;99.90;;;;;;4789960;30;20070;-76
2022/03/25 01:19:59;;;;;;;17.20;8.38;;;5.20;99.90;;;;;;4789474;29;20063;-74
2022/03/25 01:22:27;;;;;;;13.73;7.65;;;5.20;99.90;;;;;;4789119;29;20272;-74
2022/03/25 01:24:55;;;;;;;12.98;7.63;;;5.20;99.90;;;;;;4786175;29;20066;-74
2022/03/25 01:27:23;;;;;;;13.90;8.13;;;5.10;99.90;;;;;;4802216;29;20051;-75
2022/03/25 01:29:52;;;;;;;14.05;7.82;;;5.10;99.90;;;;;;4786795;30;20055;-75
2022/03/25 01:32:19;;;;;;;13.90;8.10;;;5.10;99.90;;;;;;4786588;30;20537;-73
2022/03/25 01:34:47;;;;;;;12.43;7.95;;;5.00;99.90;;;;;;4787625;29;20055;-74
2022/03/25 01:37:15;;;;;;;13.73;8.35;;;5.00;99.90;;;;;;4786713;30;20154;-73
2022/03/25 01:39:42;;;;;;;12.35;8.55;;;5.00;99.90;;;;;;4785907;29;20099;-74
2022/03/25 01:42:10;;;;;;;12.77;7.95;;;5.00;99.90;;;;;;4785170;29;20424;-74
2022/03/25 01:44:38;;;;;;;16.77;8.55;;;5.00;99.90;;;;;;4786417;30;20059;-73
2022/03/25 01:47:09;;;;;;;12.43;8.15;;;4.90;99.90;;;;;;4787536;30;20059;-74
2022/03/25 01:49:37;;;;;;;15.65;9.70;;;4.90;99.90;;;;;;4787639;29;20146;-74
2022/03/25 01:52:08;;;;;;;16.85;8.90;;;4.90;99.90;;;;;;4785819;30;20051;-74
2022/03/25 01:54:38;;;;;;;18.40;9.40;;;4.90;99.90;;;;;;4786334;30;20059;-73
2022/03/25 01:57:09;;;;;;;11.93;9.13;;;4.90;99.90;;;;;;4786472;29;20262;-75
2022/03/25 01:59:37;;;;;;;16.95;9.02;;;4.90;99.90;;;;;;4785254;29;20063;-74
2022/03/25 02:02:08;;;;;;;13.98;8.98;;;4.90;99.90;;;;;;4788019;29;20130;-74
2022/03/25 02:04:37;;;;;;;15.00;8.85;;;4.90;99.90;;;;;;4785998;29;20059;-76
2022/03/25 02:07:06;;;;;;;17.42;8.93;;;4.90;99.90;;;;;;4771017;30;20620;-74
2022/03/25 02:09:33;;;;;;;13.40;8.55;;;4.90;99.90;;;;;;4786297;29;20063;-74
2022/03/25 02:12:06;;;;;;;14.50;9.38;;;4.80;99.90;;;;;;4785949;30;20533;-75
2022/03/25 02:14:34;;;;;;;15.63;8.65;;;4.80;99.90;;;;;;4786028;30;20479;-74
2022/03/25 02:17:02;;;;;;;14.30;9.52;;;4.80;99.90;;;;;;4786242;29;20581;-75
2022/03/25 02:19:32;;;;;;;12.30;9.10;;;4.80;99.90;;;;;;4784754;30;20619;-74
2022/03/25 02:22:01;;;;;;;17.10;9.57;;;4.80;99.90;;;;;;4785649;29;20079;-73
2022/03/25 02:24:33;;;;;;;22.75;9.82;;;4.80;99.90;;;;;;4785066;30;20066;-74
2022/03/25 02:27:02;;;;;;;18.63;9.65;;;4.80;99.90;;;;;;4785789;29;20552;-73
2022/03/25 02:29:33;;;;;;;16.92;9.38;;;4.80;99.90;;;;;;4785488;30;20147;-73
2022/03/25 02:32:01;;;;;;;21.17;10.65;;;4.80;99.90;;;;;;4785170;30;20063;-74
2022/03/25 02:34:28;;;;;;;20.40;9.45;;;4.80;99.90;;;;;;4786257;29;20055;-73
2022/03/25 02:36:56;;;;;;;14.23;9.48;;;4.70;99.90;;;;;;4784332;30;20055;-73
2022/03/25 02:39:24;;;;;;;17.90;10.73;;;4.80;99.90;;;;;;4785093;29;20050;-74
2022/03/25 02:41:52;;;;;;;17.42;10.05;;;4.70;99.90;;;;;;4785538;30;20055;-74
2022/03/25 02:44:21;;;;;;;18.55;10.27;;;4.70;99.90;;;;;;4785193;30;20051;-73
2022/03/25 02:46:48;;;;;;;20.67;10.77;;;4.70;99.90;;;;;;4799250;29;20571;-73
2022/03/25 02:49:18;;;;;;;20.80;10.73;;;4.70;99.90;;;;;;4784992;29;20521;-73
2022/03/25 03:06:07;;;;;;;19.05;10.73;;;4.70;99.90;;;;;;4862638;23;20102;-74
2022/03/25 03:08:36;;;;;;;20.90;10.98;;;4.70;99.90;;;;;;4837456;29;20060;-75
2022/03/25 03:11:03;;;;;;;17.80;10.98;;;4.70;99.90;;;;;;4839652;29;20419;-73
2022/03/25 03:13:32;;;;;;;17.45;10.95;;;4.70;99.90;;;;;;4840245;29;20061;-73
2022/03/25 03:15:59;;;;;;;16.90;10.68;;;4.70;99.90;;;;;;4838937;29;20115;-73
2022/03/25 03:18:27;;;;;;;16.92;10.55;;;4.70;99.90;;;;;;4840321;29;20072;-72
2022/03/25 03:20:55;;;;;;;20.90;11.20;;;4.70;99.90;;;;;;4839480;29;20515;-72
2022/03/25 03:23:22;;;;;;;20.55;11.75;;;4.60;99.90;;;;;;4840481;29;20486;-74
2022/03/25 03:25:49;;;;;;;21.35;11.50;;;4.60;99.90;;;;;;4839107;29;20058;-73
2022/03/25 03:28:17;;;;;;;28.05;12.35;;;4.60;99.90;;;;;;4839021;29;20462;-73
2022/03/25 03:30:46;;;;;;;24.48;11.38;;;4.60;99.90;;;;;;4840585;29;20054;-73
2022/03/25 03:33:16;;;;;;;19.75;12.75;;;4.60;99.90;;;;;;4840503;29;20054;-73
2022/03/25 03:35:44;;;;;;;26.13;12.65;;;4.60;99.90;;;;;;4822418;29;20511;-74
2022/03/25 03:38:11;;;;;;;24.90;12.10;;;4.60;99.90;;;;;;4839105;29;20152;-73
2022/03/25 03:40:39;;;;;;;23.83;12.15;;;4.60;99.90;;;;;;4839235;29;20515;-73
2022/03/25 03:43:07;;;;;;;20.98;12.35;;;4.60;99.90;;;;;;4837788;29;20081;-73
2022/03/25 03:45:34;;;;;;;21.50;12.43;;;4.60;99.90;;;;;;4840965;29;20054;-74
2022/03/25 03:48:05;;;;;;;17.20;11.40;;;4.60;99.90;;;;;;4839006;29;20057;-74
2022/03/25 03:50:33;;;;;;;20.10;12.25;;;4.60;99.90;;;;;;4839248;29;20416;-75
2022/03/25 03:53:00;;;;;;;25.10;12.43;;;4.60;99.90;;;;;;4838744;29;20740;-73
2022/03/25 03:55:28;;;;;;;24.02;12.15;;;4.60;99.90;;;;;;4839110;29;20081;-74
2022/03/25 03:57:55;;;;;;;21.80;13.43;;;4.60;99.90;;;;;;4840180;29;20096;-73
2022/03/25 04:00:24;;;;;;;26.40;14.70;;;4.60;99.90;;;;;;4840025;29;20062;-74
2022/03/25 04:02:52;;;;;;;18.98;12.88;;;4.60;99.90;;;;;;4822324;29;20046;-74
2022/03/25 04:05:21;;;;;;;28.80;13.52;;;4.50;99.90;;;;;;4843274;29;20085;-75
2022/03/25 04:07:49;;;;;;;27.17;15.10;;;4.50;99.90;;;;;;4843938;29;20515;-74
2022/03/25 04:10:26;;;;;;;27.58;13.60;;;4.60;99.90;;;;;;4840074;29;20110;-74
2022/03/25 04:12:57;;;;;;;23.30;12.95;;;4.50;99.90;;;;;;4818676;29;20054;-74
2022/03/25 04:15:24;;;;;;;29.30;15.27;;;4.50;99.90;;;;;;4813419;29;20050;-73
2022/03/25 04:17:51;;;;;;;25.13;14.32;;;4.50;99.90;;;;;;4803223;29;20520;-74
2022/03/25 04:20:20;;;;;;;19.85;14.38;;;4.50;99.90;;;;;;4809087;29;20058;-73
2022/03/25 04:22:47;;;;;;;24.85;13.32;;;4.50;99.90;;;;;;4814429;29;20392;-73
2022/03/25 04:25:15;;;;;;;23.23;14.50;;;4.50;99.90;;;;;;4806118;29;20062;-73
2022/03/25 04:27:54;;;;;;;24.88;14.57;;;4.50;99.90;;;;;;4813470;29;20584;-73
2022/03/25 04:30:24;;;;;;;26.15;15.13;;;4.50;99.90;;;;;;4825471;29;20082;-74
2022/03/25 04:32:52;;;;;;;24.83;16.17;;;4.50;99.90;;;;;;4823894;29;20050;-75
2022/03/25 04:35:22;;;;;;;25.90;16.42;;;4.50;99.90;;;;;;4823397;29;20111;-73
2022/03/25 04:37:49;;;;;;;25.20;16.92;;;4.50;99.90;;;;;;4824598;29;20511;-73
2022/03/25 04:40:20;;;;;;;23.52;16.42;;;4.50;99.90;;;;;;4810231;29;20058;-74
2022/03/25 04:42:49;;;;;;;25.77;15.93;;;4.50;99.90;;;;;;4804836;29;20259;-72
2022/03/25 04:45:17;;;;;;;27.02;15.63;;;4.50;99.90;;;;;;4815058;29;20505;-74
2022/03/25 04:47:45;;;;;;;29.30;16.30;;;4.60;99.90;;;;;;4816821;29;20166;-74
2022/03/25 04:50:13;;;;;;;26.17;16.25;;;4.60;99.90;;;;;;4792246;29;20043;-72
2022/03/25 04:52:42;;;;;;;27.83;16.40;;;4.60;99.90;;;;;;4805971;29;20058;-75
2022/03/25 04:55:11;;;;;;;24.80;15.20;;;4.60;99.90;;;;;;4815998;29;20061;-74
2022/03/25 04:57:38;;;;;;;29.65;16.27;;;4.60;99.90;;;;;;4820567;29;20085;-74
2022/03/25 05:00:08;;;;;;;24.65;15.82;;;4.60;99.90;;;;;;4822212;29;20055;-73
2022/03/25 05:02:35;;;;;;;24.27;16.02;;;4.70;99.90;;;;;;4819696;29;20058;-73
2022/03/25 05:05:03;;;;;;;25.92;15.63;;;4.70;99.90;;;;;;4822692;29;20090;-74
2022/03/25 05:07:34;;;;;;;26.70;15.32;;;4.70;99.90;;;;;;4822676;29;20467;-73
2022/03/25 05:10:04;;;;;;;32.55;16.88;;;4.70;99.90;;;;;;4822255;29;20451;-76
2022/03/25 05:12:32;;;;;;;31.95;16.48;;;4.70;99.90;;;;;;4823273;29;20141;-74
2022/03/25 05:15:00;;;;;;;28.83;17.95;;;4.80;99.90;;;;;;4821999;29;20145;-74
2022/03/25 05:17:28;;;;;;;28.27;16.58;;;4.80;99.90;;;;;;4822943;29;20062;-73
2022/03/25 05:19:55;;;;;;;29.23;18.30;;;4.90;99.90;;;;;;4822810;29;20069;-75
2022/03/25 05:22:23;;;;;;;28.48;17.17;;;4.90;99.90;;;;;;4824202;29;20431;-74
2022/03/25 05:24:51;;;;;;;34.67;19.02;;;4.80;99.90;;;;;;4823232;29;20054;-74
2022/03/25 05:27:19;;;;;;;39.33;21.33;;;4.80;99.90;;;;;;4822740;29;20062;-74
2022/03/25 05:29:47;;;;;;;34.28;19.27;;;4.80;99.90;;;;;;4808072;29;20115;-69
2022/03/25 05:32:14;;;;;;;31.17;19.88;;;4.80;99.90;;;;;;4822215;29;20589;-70
2022/03/25 05:34:42;;;;;;;36.03;19.92;;;4.80;99.90;;;;;;4823421;29;20046;-70
2022/03/25 05:37:10;;;;;;;31.05;20.08;;;4.80;99.90;;;;;;4823018;29;20099;-70
2022/03/25 05:39:38;;;;;;;35.83;21.50;;;4.90;99.90;;;;;;4805368;29;20507;-73
2022/03/25 05:42:09;;;;;;;41.05;20.17;;;4.90;99.90;;;;;;4821320;29;20431;-74
2022/03/25 05:44:38;;;;;;;38.72;23.20;;;5.00;99.90;;;;;;4822185;29;20070;-76
2022/03/25 05:47:06;;;;;;;35.90;21.85;;;5.00;99.90;;;;;;4822778;29;20046;-71
2022/03/25 05:49:35;;;;;;;45.55;23.88;;;5.10;99.90;;;;;;4837432;29;20051;-70
2022/03/25 05:52:10;;;;;;;36.33;22.95;;;5.20;99.90;;;;;;4821438;29;20551;-71
2022/03/25 05:54:37;;;;;;;35.17;22.92;;;5.20;99.90;;;;;;4814818;29;20565;-71
2022/03/25 05:57:05;;;;;;;43.03;24.05;;;5.30;99.90;;;;;;4803989;29;20467;-69
2022/03/25 05:59:32;;;;;;;47.97;27.52;;;5.30;99.90;;;;;;4818063;29;20070;-71
2022/03/25 06:02:02;;;;;;;42.17;24.83;;;5.30;99.90;;;;;;4822692;29;20145;-72
2022/03/25 06:04:34;;;;;;;43.95;24.25;;;5.30;99.90;;;;;;4802614;29;20134;-76
2022/03/25 06:07:19;;;;;;;45.63;23.42;;;5.50;99.90;;;;;;4822262;29;20062;-77
2022/03/25 06:09:50;;;;;;;44.17;24.20;;;5.50;99.90;;;;;;4830960;29;20541;-76
2022/03/25 06:12:40;;;;;;;45.17;24.35;;;5.60;99.90;;;;;;4808169;29;20110;-77
2022/03/25 06:15:12;;;;;;;42.75;23.73;;;5.50;99.90;;;;;;4808128;29;20058;-75
2022/03/25 06:17:51;;;;;;;44.80;25.20;;;5.50;99.90;;;;;;4819670;29;20047;-76
2022/03/25 06:20:23;;;;;;;46.83;23.45;;;5.50;99.90;;;;;;4818465;29;20107;-76
2022/03/25 06:22:51;;;;;;;43.10;25.15;;;5.60;99.90;;;;;;4861282;24;20057;-70
2022/03/25 06:25:21;;;;;;;47.13;26.58;;;5.70;99.90;;;;;;4832316;29;20158;-77
2022/03/25 06:27:51;;;;;;;49.67;26.55;;;5.80;99.90;;;;;;4832667;29;20046;-71
2022/03/25 06:30:21;;;;;;;45.42;27.25;;;5.80;99.90;;;;;;4811177;29;20517;-70
2022/03/25 06:32:50;;;;;;;44.28;26.20;;;5.90;99.90;;;;;;4831394;29;20068;-78
2022/03/25 06:35:21;;;;;;;50.05;27.30;;;6.00;99.90;;;;;;4832218;29;20050;-71
2022/03/25 06:37:49;;;;;;;52.15;27.55;;;6.10;99.90;;;;;;4828723;29;20427;-74
2022/03/25 06:40:17;;;;;;;46.60;27.88;;;6.30;99.90;;;;;;4826108;29;20610;-71
2022/03/25 06:42:45;;;;;;;47.95;28.63;;;6.30;99.90;;;;;;4829490;29;20050;-70
2022/03/25 06:45:15;;;;;;;49.13;28.80;;;6.40;99.90;;;;;;4831847;29;20050;-76
2022/03/25 06:47:43;;;;;;;46.75;28.17;;;6.40;99.90;;;;;;4826960;29;20066;-76
2022/03/25 06:50:28;;;;;;;50.10;30.38;;;6.40;99.90;;;;;;4819041;29;20053;-70
2022/03/25 06:52:57;;;;;;;49.83;28.55;;;6.50;99.90;;;;;;4815446;29;20168;-70
2022/03/25 06:55:30;;;;;;;48.08;29.52;;;6.60;99.90;;;;;;4831204;29;20057;-76
2022/03/25 06:57:59;;;;;;;50.90;27.88;;;6.60;99.90;;;;;;4814586;29;20057;-71
2022/03/25 07:00:27;;;;;;;49.08;27.83;;;6.80;99.90;;;;;;4829782;29;20543;-71
2022/03/25 07:02:59;;;;;;;51.72;27.85;;;6.80;99.90;;;;;;4833605;29;20068;-76
2022/03/25 07:05:30;;;;;;;49.33;28.65;;;6.70;99.90;;;;;;4843148;29;20046;-70
2022/03/25 07:07:59;;;;;;;47.85;27.65;;;6.70;99.90;;;;;;4832746;29;20050;-76
2022/03/25 07:10:38;;;;;;;49.08;27.15;;;6.60;99.90;;;;;;4830685;29;20051;-71
2022/03/25 07:13:07;;;;;;;49.60;27.67;;;6.60;99.90;;;;;;4825999;29;20046;-75
2022/03/25 07:15:35;;;;;;;55.35;30.35;;;6.60;99.90;;;;;;4828156;29;20060;-70
2022/03/25 07:18:02;;;;;;;53.97;27.60;;;6.60;99.90;;;;;;4825428;29;20062;-71
2022/03/25 07:20:31;;;;;;;47.88;26.88;;;6.70;99.90;;;;;;4822350;29;20069;-70
2022/03/25 07:22:59;;;;;;;49.15;26.70;;;6.80;99.90;;;;;;4806484;29;20465;-70
2022/03/25 07:25:27;;;;;;;49.40;26.70;;;6.90;99.90;;;;;;4814330;29;20074;-77
2022/03/25 07:27:55;;;;;;;48.67;28.15;;;6.80;99.90;;;;;;4828006;29;20077;-76
2022/03/25 07:30:22;;;;;;;48.92;25.95;;;6.80;99.90;;;;;;4827728;29;20050;-77
2022/03/25 07:32:50;;;;;;;45.17;26.50;;;7.00;99.90;;;;;;4843434;29;20064;-76
2022/03/25 07:35:18;;;;;;;38.28;26.27;;;7.20;99.90;;;;;;4827247;29;20046;-78
2022/03/25 07:37:47;;;;;;;48.28;27.85;;;7.40;99.90;;;;;;4827044;29;20053;-74
2022/03/25 07:40:17;;;;;;;42.15;26.38;;;7.60;99.90;;;;;;4826789;29;20049;-76
2022/03/25 07:42:46;;;;;;;41.20;26.15;;;7.70;99.90;;;;;;4813093;29;20750;-76
2022/03/25 07:45:15;;;;;;;47.58;26.27;;;7.80;99.90;;;;;;4829365;29;20078;-75
2022/03/25 07:47:43;;;;;;;40.33;25.77;;;7.90;99.90;;;;;;4823308;29;20470;-76
2022/03/25 07:50:13;;;;;;;39.45;24.55;;;8.00;99.90;;;;;;4816605;29;20082;-71
2022/03/25 07:52:42;;;;;;;49.65;27.15;;;8.10;99.90;;;;;;4820845;29;20531;-75
2022/03/25 07:55:12;;;;;;;42.53;26.88;;;8.20;99.90;;;;;;4821097;29;20592;-77
2022/03/25 07:57:40;;;;;;;38.17;24.83;;;8.10;99.90;;;;;;4806663;29;20057;-77
2022/03/25 08:00:12;;;;;;;41.88;24.98;;;8.10;99.90;;;;;;4809388;29;20057;-77
2022/03/25 08:02:40;;;;;;;44.33;26.33;;;8.00;99.90;;;;;;4825618;29;20106;-76
2022/03/25 08:05:10;;;;;;;47.63;26.17;;;8.00;99.90;;;;;;4810607;29;20061;-76
2022/03/25 08:07:43;;;;;;;42.75;26.23;;;8.00;99.90;;;;;;4818053;29;20428;-75
2022/03/25 08:10:12;;;;;;;;;;;8.00;99.90;;;;;;4831368;29;20062;-77
2022/03/25 08:12:39;;;;;;;44.78;24.42;;;8.10;99.90;;;;;;4794158;29;19929;-75
2022/03/25 08:15:08;;;;;;;43.25;24.00;;;8.20;99.90;;;;;;4819139;29;20482;-78
2022/03/25 08:17:50;;;;;;;42.53;24.92;;;8.40;99.90;;;;;;4815171;29;20050;-78
2022/03/25 08:20:27;;;;;;;51.45;26.73;;;8.50;99.90;;;;;;4810622;29;20055;-74
2022/03/25 08:22:58;;;;;;;40.53;24.13;;;8.70;99.90;;;;;;4812191;29;20466;-76
2022/03/25 08:28:14;;;;;;;43.08;25.40;;;8.60;99.90;;;;;;4821762;29;20079;-77
2022/03/25 08:30:42;;;;;;;41.28;25.63;;;8.50;99.90;;;;;;4802159;29;20062;-76
2022/03/25 08:33:10;;;;;;;36.33;23.80;;;8.60;99.90;;;;;;4807635;29;20521;-76
2022/03/25 08:35:41;;;;;;;41.70;25.10;;;8.70;99.90;;;;;;4803888;29;20116;-70
2022/03/25 08:38:10;;;;;;;43.20;26.52;;;8.80;99.90;;;;;;4817108;29;20086;-71
2022/03/25 08:40:41;;;;;;;39.30;25.30;;;8.70;99.90;;;;;;4813880;29;20058;-71
2022/03/25 08:43:08;;;;;;;44.97;26.48;;;8.60;99.90;;;;;;4821068;29;20520;-69
2022/03/25 08:45:36;;;;;;;43.00;26.63;;;8.40;99.90;;;;;;4823657;29;20050;-76
2022/03/25 08:48:04;;;;;;;45.58;25.55;;;8.30;99.90;;;;;;4832625;29;20163;-76
2022/03/25 08:50:32;;;;;;;41.10;26.30;;;8.20;99.90;;;;;;4828159;29;20058;-77
2022/03/25 08:52:59;;;;;;;44.00;26.35;;;8.20;99.90;;;;;;4821536;29;20560;-76
2022/03/25 08:55:30;;;;;;;46.95;27.42;;;8.00;99.90;;;;;;4823741;29;20081;-77
2022/03/25 08:57:58;;;;;;;44.83;25.67;;;7.90;99.90;;;;;;4835389;29;20120;-79
2022/03/25 09:00:26;;;;;;;39.67;25.70;;;7.80;99.90;;;;;;4827322;29;20053;-77
2022/03/25 09:02:54;;;;;;;39.72;25.42;;;7.80;99.90;;;;;;4819881;29;20051;-78
2022/03/25 09:05:21;;;;;;;36.53;23.85;;;7.80;99.90;;;;;;4812629;29;20531;-71
2022/03/25 09:07:48;;;;;;;44.10;23.92;;;7.80;99.90;;;;;;4816728;29;20150;-77
2022/03/25 09:10:16;;;;;;;31.42;21.77;;;7.80;99.90;;;;;;4805236;29;20050;-70
2022/03/25 09:12:46;;;;;;;33.25;21.48;;;7.80;99.90;;;;;;4816053;29;20149;-78
2022/03/25 09:15:16;;;;;;;33.58;20.58;;;7.80;99.90;;;;;;4834260;29;20054;-70
2022/03/25 09:17:45;;;;;;;39.17;21.20;;;7.90;99.90;;;;;;4819375;29;20069;-71
2022/03/25 09:20:14;;;;;;;34.30;21.23;;;8.00;99.90;;;;;;4809811;29;20058;-71
2022/03/25 09:22:41;;;;;;;29.90;18.65;;;8.20;99.90;;;;;;4814791;29;20420;-76
2022/03/25 09:25:10;;;;;;;27.42;19.63;;;8.40;99.90;;;;;;4814552;29;20086;-77
2022/03/25 09:27:39;;;;;;;31.05;19.63;;;8.50;99.90;;;;;;4812767;29;20077;-77
2022/03/25 09:30:10;;;;;;;30.10;20.45;;;8.60;99.90;;;;;;4821272;29;20129;-78
2022/03/25 09:32:39;;;;;;;25.67;18.50;;;8.60;99.90;;;;;;4822180;29;20131;-79
2022/03/25 09:35:10;;;;;;;32.60;19.67;;;8.70;99.90;;;;;;4814294;29;20149;-78
2022/03/25 09:37:40;;;;;;;29.92;18.60;;;8.70;99.90;;;;;;4814573;29;20058;-79
2022/03/25 09:40:13;;;;;;;32.70;19.55;;;8.80;99.90;;;;;;4823979;29;20424;-77
2022/03/25 09:42:42;;;;;;;29.55;19.42;;;9.00;99.90;;;;;;4823818;29;20103;-77
2022/03/25 09:45:12;;;;;;;32.05;19.17;;;9.40;99.90;;;;;;4816757;29;20468;-78
2022/03/25 09:47:44;;;;;;;30.02;19.90;;;9.80;99.90;;;;;;4809998;29;20436;-78
2022/03/25 09:50:25;;;;;;;30.75;20.30;;;10.10;99.90;;;;;;4802574;29;20420;-78
2022/03/25 09:52:54;;;;;;;32.22;19.45;;;10.20;99.90;;;;;;4819821;29;20100;-77
2022/03/25 09:55:23;;;;;;;27.75;19.17;;;10.40;99.90;;;;;;4802583;29;20050;-78
2022/03/25 09:57:51;;;;;;;27.27;19.20;;;10.80;99.90;;;;;;4817729;29;20054;-77
2022/03/25 10:00:20;;;;;;;30.75;19.25;;;10.90;99.90;;;;;;4821182;29;20065;-76
2022/03/25 10:02:50;;;;;;;31.75;18.58;;;11.40;99.90;;;;;;4810252;29;20519;-77
2022/03/25 10:05:19;;;;;;;27.40;17.48;;;11.70;99.90;;;;;;4805880;29;20091;-77
2022/03/25 10:07:49;;;;;;;36.80;18.15;;;11.60;99.90;;;;;;4811897;29;20055;-72
2022/03/25 10:10:19;;;;;;;28.88;18.20;;;11.30;99.90;;;;;;4821959;29;20054;-71
2022/03/25 10:12:48;;;;;;;34.97;20.13;;;10.80;99.90;;;;;;4822016;29;20050;-71
2022/03/25 10:15:19;;;;;;;30.95;18.77;;;10.30;99.90;;;;;;4804223;29;20142;-70
2022/03/25 10:17:56;;;;;;;31.27;19.77;;;10.00;99.90;;;;;;4808636;29;20058;-71
2022/03/25 10:20:28;;;;;;;41.83;19.67;;;9.80;99.90;;;;;;4805596;29;20588;-70
2022/03/25 10:23:06;;;;;;;36.75;18.50;;;9.60;99.90;;;;;;4814600;29;20478;-75
2022/03/25 10:25:38;;;;;;;33.33;19.17;;;9.40;99.90;;;;;;4813541;29;20062;-71
2022/03/25 10:28:18;;;;;;;33.40;19.27;;;9.20;99.90;;;;;;4816325;29;20070;-70
2022/03/25 10:30:50;;;;;;;31.90;18.77;;;9.10;99.90;;;;;;4811931;29;20110;-69
2022/03/25 10:33:29;;;;;;;32.13;18.77;;;9.00;99.90;;;;;;4820019;29;20058;-72
2022/03/25 10:36:07;;;;;;;35.00;18.38;;;9.10;99.90;;;;;;4827272;29;20062;-70
2022/03/25 10:38:48;;;;;;;29.42;19.35;;;9.30;99.90;;;;;;4825693;29;20140;-71
2022/03/25 10:41:18;;;;;;;25.05;17.60;;;9.50;99.90;;;;;;4828331;29;20507;-70
2022/03/25 10:43:56;;;;;;;31.40;19.40;;;9.70;99.90;;;;;;4821825;29;20527;-70
2022/03/25 10:46:33;;;;;;;28.92;17.67;;;9.90;99.90;;;;;;4804130;29;20059;-72
2022/03/25 10:49:05;;;;;;;29.40;18.65;;;10.10;99.90;;;;;;4823881;29;20150;-78
2022/03/25 10:51:33;;;;;;;24.77;18.23;;;10.40;99.90;;;;;;4823989;29;20485;-77
2022/03/25 10:54:07;;;;;;;33.58;18.42;;;10.60;99.90;;;;;;4828717;29;20054;-78
2022/03/25 10:56:47;;;;;;;30.90;17.67;;;10.80;99.90;;;;;;4833627;29;20072;-76
2022/03/25 10:59:23;;;;;;;39.72;18.48;;;10.60;99.90;;;;;;4804531;29;20050;-77
2022/03/25 11:01:52;;;;;;;28.90;16.77;;;10.40;99.90;;;;;;4807085;29;20108;-77
2022/03/25 11:04:22;;;;;;;30.08;16.42;;;10.20;99.90;;;;;;4826259;29;20488;-76
2022/03/25 11:06:50;;;;;;;31.58;15.95;;;10.00;99.90;;;;;;4806558;29;20360;-77
2022/03/25 11:09:19;;;;;;;28.55;16.40;;;10.00;99.90;;;;;;4811309;29;20141;-77
2022/03/25 11:11:48;;;;;;;32.13;16.70;;;10.00;99.90;;;;;;4808645;29;20108;-74
2022/03/25 11:14:17;;;;;;;24.17;15.05;;;10.10;99.90;;;;;;4806919;29;20055;-70
2022/03/25 11:16:47;;;;;;;25.75;15.65;;;10.00;99.90;;;;;;4805422;29;20626;-74
2022/03/25 11:19:16;;;;;;;23.80;15.32;;;9.90;99.90;;;;;;4818547;29;20107;-69
2022/03/25 11:21:46;;;;;;;28.40;14.45;;;9.80;99.90;;;;;;4820062;29;20057;-77
2022/03/25 11:24:21;;;;;;;29.58;15.32;;;9.70;99.90;;;;;;4802445;29;20163;-74
2022/03/25 11:26:53;;;;;;;23.83;14.25;;;9.60;99.90;;;;;;4803920;29;20545;-75
2022/03/25 11:29:27;;;;;;;24.00;14.32;;;9.60;99.90;;;;;;4803523;29;20540;-77
2022/03/25 11:32:11;;;;;;;27.25;14.25;;;9.70;99.90;;;;;;4805863;29;20055;-76
2022/03/25 11:34:45;;;;;;;25.67;13.75;;;10.00;99.90;;;;;;4812728;29;20046;-78
2022/03/25 11:37:21;;;;;;;21.15;13.18;;;10.10;99.90;;;;;;4817399;29;20058;-77
2022/03/25 11:40:22;;;;;;;39.72;13.90;;;10.00;99.90;;;;;;4804620;29;20067;-76
2022/03/25 11:42:51;;;;;;;25.23;12.93;;;9.90;99.90;;;;;;4813143;29;20134;-70
2022/03/25 11:45:36;;;;;;;25.92;14.13;;;9.70;99.90;;;;;;4821811;29;20058;-70
2022/03/25 11:48:39;;;;;;;25.13;14.27;;;9.60;99.90;;;;;;4823328;29;20057;-70
2022/03/25 11:51:35;;;;;;;22.63;14.35;;;9.40;99.90;;;;;;4813329;29;20058;-69
2022/03/25 11:54:38;;;;;;;26.92;13.05;;;9.10;99.90;;;;;;4804662;29;20137;-70
2022/03/25 11:57:07;;;;;;;29.67;14.88;;;9.00;99.90;;;;;;4807974;29;20062;-70
2022/03/25 11:59:49;;;;;;;23.88;13.40;;;8.90;99.90;;;;;;4820207;29;20115;-70
2022/03/25 12:02:35;;;;;;;23.52;12.90;;;9.00;99.90;;;;;;4807916;29;20046;-71
2022/03/25 12:05:05;;;;;;;18.63;12.77;;;9.00;99.90;;;;;;4802712;29;20536;-69
2022/03/25 12:07:32;;;;;;;23.83;14.13;;;9.10;99.90;;;;;;4807069;29;20059;-72
2022/03/25 12:10:01;;;;;;;17.45;13.15;;;9.10;99.90;;;;;;4811386;29;20428;-71
2022/03/25 12:12:53;;;;;;;20.70;12.23;;;9.20;99.90;;;;;;4788640;29;20090;-71
2022/03/25 12:15:21;;;;;;;30.67;12.82;;;9.20;99.90;;;;;;4799780;29;20103;-70
2022/03/25 12:17:50;;;;;;;24.58;12.30;;;9.20;99.90;;;;;;4804364;29;20074;-70
2022/03/25 12:20:42;;;;;;;22.42;13.13;;;9.20;99.90;;;;;;4813489;29;20111;-71
2022/03/25 12:23:10;;;;;;;18.20;11.95;;;9.10;99.90;;;;;;4807090;29;20131;-71
2022/03/25 12:25:44;;;;;;;24.73;11.90;;;9.10;99.90;;;;;;4818686;29;20505;-70
2022/03/25 12:28:11;;;;;;;17.90;11.95;;;9.00;99.90;;;;;;4819329;29;20061;-70
2022/03/25 12:30:39;;;;;;;22.17;12.60;;;8.90;99.90;;;;;;4824537;29;20061;-70
2022/03/25 12:33:08;;;;;;;21.90;12.40;;;8.90;99.90;;;;;;4812256;29;20559;-70
2022/03/25 12:35:38;;;;;;;22.52;12.32;;;8.80;99.90;;;;;;4804919;29;20610;-71
2022/03/25 12:38:24;;;;;;;29.30;13.65;;;8.70;99.90;;;;;;4818317;29;20050;-70
2022/03/25 12:40:55;;;;;;;23.90;12.55;;;8.60;99.90;;;;;;4814266;29;20078;-71
2022/03/25 12:43:31;;;;;;;24.80;11.48;;;8.50;99.90;;;;;;4812052;29;20089;-71
2022/03/25 12:45:58;;;;;;;21.95;11.25;;;8.50;99.90;;;;;;4815462;29;20074;-70
2022/03/25 12:48:26;;;;;;;26.15;12.77;;;8.40;99.90;;;;;;4813902;29;20083;-70
2022/03/25 12:50:55;;;;;;;19.98;11.18;;;8.30;99.90;;;;;;4813374;29;20111;-71
2022/03/25 12:53:24;;;;;;;29.15;13.05;;;8.30;99.90;;;;;;4823489;29;20111;-71
2022/03/25 12:55:53;;;;;;;23.10;12.40;;;8.20;99.90;;;;;;4811107;29;20130;-72
2022/03/25 12:58:22;;;;;;;19.90;11.75;;;8.20;99.90;;;;;;4819506;29;20393;-71
2022/03/25 13:00:53;;;;;;;28.08;12.95;;;8.20;99.90;;;;;;4819760;29;20051;-71
2022/03/25 13:03:24;;;;;;;18.33;11.27;;;8.20;99.90;;;;;;4806307;29;20063;-70
2022/03/25 13:05:52;;;;;;;22.02;12.45;;;8.20;99.90;;;;;;4805758;29;20051;-71
2022/03/25 13:08:20;;;;;;;18.13;11.43;;;8.20;99.90;;;;;;4800507;29;20145;-69
2022/03/25 13:10:47;;;;;;;19.08;12.05;;;8.10;99.90;;;;;;4816404;29;20588;-77